• Join FlightAware (Why Join?)
  • Login
  • US Flag 
10:07AM EST


 

Airport Tracker/Info


-or-


 

Live Flight TrackerFlight Track Log ✈ UAL3741 ✈ 13-Oct-2013 ✈ KIAD - KAUS

Flight Track Log - Related Links

Times and Time Zones

All times are in EDT time to prevent confusion due to time zone crossing. See the UAL3741 flight status page for this flight to view local times or setup timezone preferences in your user account.

Time Position Orientation Groundspeed Altitude Reporting Facility
EDT Latitude Longitude Course Direction KTS MPH feet Rate Location/Type
12:25PM 38.9333 -77.5500 256° West 211 243 2,300  Level Potomac TRACON
12:26PM 38.9167 -77.6333 256° West 278 320 3,800 2,220 Climbing Potomac TRACON
12:27PM 38.8967 -77.7200 254° West 293 337 6,600 2,640 Climbing Washington Center
12:28PM 38.8803 -77.8208 258° West 287 330 9,200 2,340 Climbing Washington Center
12:29PM 38.8722 -77.9167 264° West 298 343 11,400 2,160 Climbing Washington Center
12:30PM 38.8658 -78.0283 266° West 310 357 13,500 2,100 Climbing Washington Center
12:31PM 38.8572 -78.1375 264° West 310 357 15,600 1,320 Climbing Washington Center
12:32PM 38.8544 -78.2628 268° West 330 380 16,300 1,260 Climbing Washington Center
12:33PM 38.8494 -78.3983 267° West 357 411 18,200 1,320 Climbing Washington Center
12:34PM 38.8275 -78.5308 258° West 376 433 19,000 1,080 Climbing Washington Center
12:35PM 38.8053 -78.6711 259° West 392 451 20,400 1,440 Climbing Washington Center
12:36PM 38.7806 -78.8139 258° West 405 466 22,000 1,320 Climbing Washington Center
12:37PM 38.7581 -78.9567 259° West 411 473 23,100 1,080 Climbing Washington Center
12:38PM 38.7328 -79.1072 258° West 417 480 24,200 1,140 Climbing Washington Center
12:39PM 38.7069 -79.2736 259° West 432 497 25,500 1,140 Climbing Washington Center
12:40PM 38.6833 -79.4267 259° West 446 513 26,500 840 Climbing Washington Center
12:41PM 38.6556 -79.5794 257° West 446 513 27,200 780 Climbing Washington Center
12:42PM 38.6294 -79.7322 258° West 446 513 28,100 720 Climbing Washington Center
12:43PM 38.6056 -79.8744 258° West 451 519 28,700 660 Climbing Washington Center
12:44PM 38.5747 -80.0347 256° West 451 519 29,400 720 Climbing Washington Center
12:46PM 38.5069 -80.3919 256° West 458 527 31,200 780 Climbing Indianapolis Center
12:47PM 38.4717 -80.5747 256° West 454 522 32,200 840 Climbing Indianapolis Center
12:48PM 38.4428 -80.7314 257° West 452 520 33,000 720 Climbing Indianapolis Center
12:49PM 38.4136 -80.8842 256° West 445 512 33,800 480 Climbing Indianapolis Center
12:50PM 38.3847 -81.0397 257° West 448 516 34,000 60 Climbing Indianapolis Center
12:51PM 38.3489 -81.1978 254° West 461 531 34,000  Level Indianapolis Center
12:52PM 38.3103 -81.3567 253° West 465 535 34,000  Level Indianapolis Center
12:53PM 38.2706 -81.5150 252° West 464 534 34,000  Level Indianapolis Center
12:54PM 38.2317 -81.6731 253° West 465 535 34,000  Level Indianapolis Center
12:55PM 38.1806 -81.8606 251° West 465 535 34,000  Level Indianapolis Center
12:56PM 38.1372 -82.0156 250° West 464 534 34,000  Level Indianapolis Center
12:57PM 38.0950 -82.1647 250° West 466 536 34,000  Level Indianapolis Center
12:58PM 38.0522 -82.3183 251° West 463 533 34,000  Level Indianapolis Center
12:59PM 38.0081 -82.4700 250° West 460 529 34,000  Level Indianapolis Center
01:00PM 37.9569 -82.6483 250° West 461 531 34,000  Level Indianapolis Center
01:01PM 37.9133 -82.8003 250° West 459 528 34,000  Level Indianapolis Center
01:02PM 37.8692 -82.9519 250° West 459 528 34,000  Level Indianapolis Center
01:03PM 37.8233 -83.1028 249° West 460 529 34,000  Level Indianapolis Center
01:05PM 37.7778 -83.2497 249° West 454 522 34,000  Level Indianapolis Center
01:06PM 37.7278 -83.4247 250° West 454 522 34,000 120 Level Indianapolis Center
01:07PM 37.6844 -83.5742 250° West 454 522 34,300 420 Climbing Indianapolis Center
01:08PM 37.6406 -83.7233 250° West 454 522 34,900 540 Climbing Indianapolis Center
01:09PM 37.5967 -83.8703 249° West 450 518 35,500 480 Climbing Indianapolis Center
01:10PM 37.5539 -84.0156 250° West 446 513 36,000 240 Climbing Indianapolis Center
01:11PM 37.5028 -84.1864 249° West 449 517 36,000  Level Indianapolis Center
01:12PM 37.4597 -84.3328 250° West 448 516 36,000  Level Indianapolis Center
01:13PM 37.4125 -84.4794 248° West 450 518 36,000  Level Indianapolis Center
01:14PM 37.3656 -84.6233 248° West 446 513 36,000  Level Indianapolis Center
01:15PM 37.3206 -84.7678 249° West 445 512 36,000  Level Indianapolis Center
01:16PM 37.2753 -84.9100 248° West 441 507 36,000  Level Indianapolis Center
01:17PM 37.2217 -85.0769 248° West 442 509 36,000  Level Indianapolis Center
01:18PM 37.1875 -85.2219 254° West 437 503 36,000  Level Indianapolis Center
01:19PM 37.1578 -85.3708 256° West 440 506 36,000  Level Indianapolis Center
01:20PM 37.1269 -85.5131 255° West 441 507 36,000  Level Indianapolis Center
01:21PM 37.0950 -85.6636 255° West 444 511 36,000  Level Indianapolis Center
01:22PM 37.0594 -85.8369 256° West 438 504 36,000  Level Indianapolis Center
01:23PM 37.0122 -85.9806 248° West 445 512 36,000  Level Indianapolis Center
01:24PM 36.9561 -86.1203 243° Southwest 446 513 36,000  Level Indianapolis Center
01:25PM 36.9008 -86.2586 243° Southwest 443 510 36,000  Level Indianapolis Center
01:26PM 36.8456 -86.3931 243° Southwest 446 513 36,000  Level Memphis Center
01:27PM 36.7917 -86.5331 244° Southwest 446 513 36,000  Level Memphis Center
01:28PM 36.7353 -86.6703 243° Southwest 446 513 36,000  Level Memphis Center
01:29PM 36.6750 -86.8178 243° Southwest 446 513 36,000  Level Memphis Center
01:30PM 36.6206 -86.9547 244° Southwest 446 513 36,000  Level Memphis Center
01:31PM 36.5617 -87.0914 242° Southwest 441 507 36,000  Level Memphis Center
01:32PM 36.5067 -87.2281 243° Southwest 441 507 36,000  Level Memphis Center
01:33PM 36.4497 -87.3617 242° Southwest 441 507 36,000  Level Memphis Center
01:34PM 36.3925 -87.5006 243° Southwest 441 507 36,000  Level Memphis Center
01:35PM 36.3350 -87.6339 242° Southwest 441 507 36,000  Level Memphis Center
01:36PM 36.2794 -87.7669 243° Southwest 441 507 36,000  Level Memphis Center
01:37PM 36.2258 -87.9000 243° Southwest 441 507 36,000  Level Memphis Center
01:38PM 36.1681 -88.0328 242° Southwest 447 514 36,000  Level Memphis Center
01:39PM 36.1158 -88.1475 241° Southwest 436 502 36,000  Level Memphis Center
01:40PM 36.0597 -88.2772 242° Southwest 436 502 36,000  Level Memphis Center
01:41PM 36.0014 -88.4122 242° Southwest 436 502 36,000  Level Memphis Center
01:42PM 35.9389 -88.5547 242° Southwest 436 502 36,000  Level Memphis Center
01:43PM 35.8803 -88.6867 241° Southwest 436 502 36,000  Level Memphis Center
01:44PM 35.8258 -88.8158 243° Southwest 436 502 36,000  Level Memphis Center
01:45PM 35.7669 -88.9472 241° Southwest 436 502 36,000  Level Memphis Center
01:46PM 35.7100 -89.0761 241° Southwest 441 507 36,000  Level Memphis Center
01:47PM 35.6611 -89.2047 245° Southwest 430 495 36,000  Level Memphis Center
01:48PM 35.6039 -89.3281 240° Southwest 430 495 36,000  Level Memphis Center
01:49PM 35.5506 -89.4561 243° Southwest 430 495 36,000  Level Memphis Center
01:50PM 35.4950 -89.5819 242° Southwest 425 489 36,000  Level Memphis Center
01:51PM 35.4375 -89.7072 241° Southwest 425 489 36,000  Level Memphis Center
01:52PM 35.3797 -89.8350 241° Southwest 425 489 36,000  Level Memphis Center
01:53PM 35.3281 -89.9575 243° Southwest 419 482 36,000  Level Memphis Center
01:54PM 35.2719 -90.0825 241° Southwest 414 476 36,000  Level Memphis Center
01:55PM 35.2158 -90.2072 241° Southwest 414 476 36,000  Level Memphis Center
01:56PM 35.1575 -90.3267 239° Southwest 414 476 36,000  Level Memphis Center
01:57PM 35.1011 -90.4536 242° Southwest 414 476 36,000  Level Memphis Center
01:58PM 35.0469 -90.5753 241° Southwest 414 476 36,000  Level Memphis Center
01:59PM 34.9944 -90.6842 240° Southwest 414 476 36,000  Level Memphis Center
02:00PM 34.9397 -90.8056 241° Southwest 414 476 36,000  Level Memphis Center
02:01PM 34.8808 -90.9267 239° Southwest 414 476 36,000  Level Memphis Center
02:02PM 34.8261 -91.0503 242° Southwest 414 476 36,000  Level Memphis Center
02:03PM 34.7689 -91.1686 240° Southwest 414 476 36,000  Level Memphis Center
02:04PM 34.7139 -91.2919 242° Southwest 414 476 36,000  Level Memphis Center
02:05PM 34.6567 -91.4100 240° Southwest 414 476 36,000  Level Memphis Center
02:06PM 34.5928 -91.5428 240° Southwest 414 476 36,000  Level Memphis Center
02:07PM 34.5375 -91.6631 241° Southwest 413 475 36,000  Level Memphis Center
02:08PM 34.4861 -91.7631 238° Southwest 407 468 36,000  Level Memphis Center
02:09PM 34.4286 -91.8831 240° Southwest 407 468 36,000  Level Memphis Center
02:10PM 34.3728 -91.9978 239° Southwest 407 468 36,000  Level Memphis Center
02:11PM 34.3147 -92.1200 240° Southwest 407 468 36,000  Level Memphis Center
02:12PM 34.2589 -92.2369 240° Southwest 407 468 36,000  Level Memphis Center
02:13PM 34.2006 -92.3561 239° Southwest 407 468 36,000  Level Memphis Center
02:15PM 34.0892 -92.5961 241° Southwest 415 478 36,000  Level Fort Worth Center
02:16PM 34.0353 -92.7144 241° Southwest 415 478 36,000  Level Fort Worth Center
02:17PM 33.9769 -92.8303 239° Southwest 410 472 36,000  Level Fort Worth Center
02:18PM 33.9186 -92.9458 239° Southwest 410 472 36,000  Level Fort Worth Center
02:19PM 33.8603 -93.0639 239° Southwest 410 472 36,000  Level Fort Worth Center
02:20PM 33.8014 -93.1792 238° Southwest 410 472 36,000  Level Fort Worth Center
02:21PM 33.7450 -93.2994 241° Southwest 410 472 36,000  Level Fort Worth Center
02:22PM 33.6861 -93.4144 238° Southwest 410 472 36,000  Level Fort Worth Center
02:23PM 33.6292 -93.5294 239° Southwest 410 472 36,000  Level Fort Worth Center
02:24PM 33.5700 -93.6442 238° Southwest 410 472 36,000  Level Fort Worth Center
02:25PM 33.5150 -93.7586 240° Southwest 410 472 36,000  Level Fort Worth Center
02:26PM 33.4675 -93.8528 239° Southwest 410 472 36,000  Level Fort Worth Center
02:27PM 33.4003 -93.9872 239° Southwest 425 489 36,000  Level Fort Worth Center
02:28PM 33.3408 -94.1039 239° Southwest 419 482 36,000  Level Fort Worth Center
02:29PM 33.2811 -94.2156 237° Southwest 419 482 36,000  Level Fort Worth Center
02:30PM 33.2236 -94.3292 239° Southwest 419 482 36,000  Level Fort Worth Center
02:31PM 33.1658 -94.4431 239° Southwest 413 475 36,000  Level Fort Worth Center
02:32PM 33.1058 -94.5592 238° Southwest 413 475 36,000  Level Fort Worth Center
02:33PM 33.0458 -94.6750 238° Southwest 418 481 36,000  Level Fort Worth Center
02:34PM 32.9856 -94.7883 238° Southwest 418 481 36,000  Level Fort Worth Center
02:35PM 32.9275 -94.9039 239° Southwest 413 475 36,000  Level Fort Worth Center
02:36PM 32.8692 -95.0192 239° Southwest 413 475 36,000  Level Fort Worth Center
02:37PM 32.8064 -95.1347 237° Southwest 418 481 36,000  Level Fort Worth Center
02:38PM 32.7458 -95.2522 239° Southwest 418 481 36,000  Level Fort Worth Center
02:39PM 32.6872 -95.3647 238° Southwest 412 474 36,000  Level Fort Worth Center
02:40PM 32.6264 -95.4769 237° Southwest 417 480 36,000  Level Fort Worth Center
02:41PM 32.5656 -95.5917 238° Southwest 417 480 36,000  Level Fort Worth Center
02:42PM 32.5044 -95.7089 238° Southwest 417 480 36,000  Level Fort Worth Center
02:43PM 32.4433 -95.8206 237° Southwest 417 480 36,000  Level Fort Worth Center
02:44PM 32.3822 -95.9397 239° Southwest 417 480 36,000  Level Fort Worth Center
02:45PM 32.3208 -96.0564 238° Southwest 422 486 36,000  Level Fort Worth Center
02:46PM 32.2533 -96.1803 237° Southwest 422 486 36,000  Level Fort Worth Center
02:47PM 32.1939 -96.2939 238° Southwest 417 480 36,000  Level Fort Worth Center
02:48PM 32.1300 -96.4075 236° Southwest 422 486 36,000 -360 Level Fort Worth Center
02:49PM 32.0494 -96.5064 226° Southwest 422 486 35,400 -720 Descending Fort Worth Center
02:50PM 31.9725 -96.5708 215° Southwest 417 480 34,600 -1,140 Descending Fort Worth Center
02:51PM 31.8625 -96.6650 216° Southwest 411 473 33,200 -1,320 Descending Fort Worth Center
02:52PM 31.7689 -96.7414 215° Southwest 416 479 32,100 -1,260 Descending Fort Worth Center
02:53PM 31.6711 -96.8225 215° Southwest 427 491 30,700 -1,500 Descending Fort Worth Center
02:54PM 31.5733 -96.9036 215° Southwest 427 491 29,100 -1,740 Descending Fort Worth Center
02:55PM 31.4764 -96.9864 216° Southwest 432 497 27,100 -1,920 Descending Houston Center
02:56PM 31.3786 -97.0678 215° Southwest 430 495 25,100 -2,040 Descending Houston Center
02:57PM 31.2839 -97.1472 216° Southwest 418 481 23,000 -1,500 Descending Houston Center
02:58PM 31.1933 -97.2144 212° Southwest 387 445 22,000 -840 Descending Houston Center
02:59PM 31.0689 -97.2633 199° South 399 459 21,300 -1,560 Descending Houston Center
03:00PM 30.9689 -97.3047 200° South 392 451 18,800 -2,280 Descending Houston Center
03:01PM 30.8656 -97.3425 197° South 399 459 16,600 -2,520 Descending Houston Center
03:02PM 30.7506 -97.3869 198° South 374 430 13,600 -2,820 Descending Houston Center
03:04PM 30.6686 -97.4492 213° Southwest 366 421 10,800 -2,280 Descending Houston Center
03:05PM 30.6208 -97.5319 236° Southwest 312 359 8,900 -1,920 Descending Houston Center
03:06PM 30.5789 -97.6083 237° Southwest 287 330 6,900 -1,500 Descending Houston Center
03:07PM 30.5253 -97.6614 220° Southwest 267 307 5,900 -1,260 Descending Houston Center
03:08PM 30.4594 -97.6933 203° Southwest 255 293 4,300 -1,380 Descending Houston Center
03:09PM 30.4008 -97.6850 173° South 226 260 3,100 -900 Descending Houston Center
03:10PM 30.3397 -97.6828 178° South 198 228 2,500 -360 Descending Houston Center
03:11PM 30.2928 -97.6811 178° South 182 209 2,400 -540 Descending Houston Center
03:12PM 30.2525 -97.6800 179° South 161 185 1,400 -600 Descending Houston Center
03:13PM 30.2178 -97.6792 179° South 155 178 1,200 -240 Descending Houston Center